createdAt,value
2022-10-30T00:04:01.437Z,43.72
2022-10-30T00:06:34.175Z,43.75
2022-10-30T00:09:04.486Z,43.73
2022-10-30T00:11:34.333Z,43.71
2022-10-30T00:14:04.773Z,44.14
2022-10-30T00:16:34.806Z,43.97
2022-10-30T00:19:05.064Z,44.07
2022-10-30T00:21:37.080Z,43.74
2022-10-30T00:24:10.927Z,44.14
2022-10-30T00:26:41.414Z,44.04
2022-10-30T00:31:58.635Z,43.85
2022-10-30T00:34:29.060Z,44.21
2022-10-30T00:37:01.452Z,44.29
2022-10-30T00:39:31.694Z,44.26
2022-10-30T00:42:02.208Z,44.15
2022-10-30T00:47:36.688Z,44.31
2022-10-30T00:50:14.886Z,44.32
2022-10-30T00:52:54.356Z,44.12
2022-10-30T00:55:30.552Z,44.54
2022-10-30T00:58:05.591Z,44.22
2022-10-30T01:00:38.446Z,44.01
2022-10-30T01:03:08.566Z,44.33
2022-10-30T01:05:39.443Z,44.49
2022-10-30T01:08:12.175Z,44.58
2022-10-30T01:10:43.293Z,44.21
2022-10-30T01:13:14.446Z,44.25
2022-10-30T01:16:02.376Z,44.54
2022-10-30T01:18:49.444Z,44.87
2022-10-30T01:21:43.813Z,44.54
2022-10-30T01:30:54.113Z,44.68
2022-10-30T01:33:39.707Z,44.73
2022-10-30T01:36:20.854Z,44.49
2022-10-30T01:38:56.149Z,44.30
2022-10-30T01:41:28.597Z,44.60
2022-10-30T01:44:05.131Z,44.83
2022-10-30T01:47:16.246Z,44.66
2022-10-30T01:50:12.922Z,44.74
2022-10-30T01:52:54.266Z,44.72
2022-10-30T01:55:40.340Z,44.92
2022-10-30T01:58:22.687Z,44.75
2022-10-30T02:03:49.232Z,44.65
2022-10-30T02:06:20.020Z,44.98
2022-10-30T02:08:50.613Z,45.04
2022-10-30T02:11:21.376Z,45.05
2022-10-30T02:13:57.521Z,45.11
2022-10-30T02:19:15.311Z,44.81
2022-10-30T02:21:47.854Z,45.49
2022-10-30T02:27:05.291Z,45.32
2022-10-30T02:29:35.341Z,45.09
2022-10-30T02:32:05.865Z,45.31
2022-10-30T02:34:37.246Z,45.37
2022-10-30T02:37:09.862Z,45.25
2022-10-30T02:39:40.163Z,45.21
2022-10-30T02:42:10.668Z,45.42
2022-10-30T02:44:41.105Z,45.47
2022-10-30T02:47:11.011Z,45.36
2022-10-30T02:49:41.249Z,45.13
2022-10-30T02:55:00.963Z,45.34
2022-10-30T02:57:31.437Z,45.26
2022-10-30T03:00:01.937Z,45.14
2022-10-30T03:02:32.408Z,45.48
2022-10-30T03:05:02.356Z,45.82
2022-10-30T03:07:35.031Z,45.22
2022-10-30T03:10:05.840Z,45.63
2022-10-30T03:12:36.231Z,45.65
2022-10-30T03:15:06.841Z,45.59
2022-10-30T03:28:50.555Z,45.50
2022-10-30T03:31:21.706Z,45.66
2022-10-30T03:33:52.421Z,45.91
2022-10-30T03:36:22.762Z,45.85
2022-10-30T03:41:43.855Z,46.11
2022-10-30T03:44:14.161Z,45.99
2022-10-30T03:46:44.213Z,46.00
2022-10-30T03:49:14.241Z,46.03
2022-10-30T03:51:44.074Z,45.88
2022-10-30T03:57:05.079Z,45.88
2022-10-30T03:59:35.649Z,46.04
2022-10-30T04:02:06.134Z,46.01
2022-10-30T04:04:36.065Z,46.20
2022-10-30T04:07:06.043Z,45.67
2022-10-30T04:09:37.992Z,46.19
2022-10-30T04:12:08.930Z,46.21
2022-10-30T04:17:26.828Z,46.47
2022-10-30T04:20:05.159Z,46.22
2022-10-30T04:28:12.785Z,46.36
2022-10-30T04:33:29.795Z,46.35
2022-10-30T04:41:36.158Z,46.70
2022-10-30T04:44:07.098Z,46.63
2022-10-30T04:46:37.144Z,46.82
2022-10-30T04:49:07.502Z,46.71
2022-10-30T04:51:37.956Z,46.38
2022-10-30T04:54:07.815Z,46.65
2022-10-30T04:56:40.151Z,46.73
2022-10-30T04:59:10.498Z,47.06
2022-10-30T05:01:40.860Z,47.08
2022-10-30T05:06:58.443Z,47.43
2022-10-30T05:09:28.577Z,46.99
2022-10-30T05:14:47.684Z,47.25
2022-10-30T05:17:18.112Z,47.23
2022-10-30T05:19:47.736Z,47.33
2022-10-30T05:22:17.434Z,47.40
2022-10-30T05:24:47.054Z,47.28
2022-10-30T05:27:19.399Z,47.48
2022-10-30T05:32:36.357Z,47.04
2022-10-30T05:35:07.866Z,47.03
2022-10-30T05:37:38.062Z,47.20
2022-10-30T05:40:09.922Z,47.46
2022-10-30T05:48:24.547Z,47.79
2022-10-30T05:50:54.868Z,47.71
2022-10-30T05:53:25.655Z,47.48
2022-10-30T05:55:59.741Z,47.61
2022-10-30T05:58:32.101Z,47.31
2022-10-30T06:01:02.116Z,47.22
2022-10-30T06:03:33.198Z,47.17
2022-10-30T06:08:51.142Z,47.07
2022-10-30T06:11:21.489Z,47.46
2022-10-30T06:16:41.669Z,47.28
2022-10-30T06:21:59.925Z,47.26
2022-10-30T06:24:30.294Z,47.24
2022-10-30T06:27:01.119Z,46.88
2022-10-30T06:29:33.469Z,47.20
2022-10-30T06:32:06.686Z,46.84
2022-10-30T06:34:36.880Z,46.83
2022-10-30T06:37:07.527Z,47.19
2022-10-30T06:39:37.606Z,46.57
2022-10-30T06:42:08.277Z,46.38
2022-10-30T06:44:40.528Z,47.05
2022-10-30T06:47:11.366Z,46.98
2022-10-30T06:49:41.944Z,46.31
2022-10-30T06:52:12.255Z,46.49
2022-10-30T06:57:30.843Z,46.78
2022-10-30T07:00:03.444Z,46.17
2022-10-30T07:02:33.647Z,46.31
2022-10-30T07:10:39.601Z,46.17
2022-10-30T07:13:11.155Z,45.99
2022-10-30T07:15:44.041Z,46.18
2022-10-30T07:18:14.633Z,46.29
2022-10-30T07:20:44.991Z,45.87
2022-10-30T07:26:04.421Z,45.70
2022-10-30T07:28:35.042Z,46.05
2022-10-30T07:31:08.175Z,45.77
2022-10-30T07:36:26.460Z,45.46
2022-10-30T07:38:56.705Z,45.31
2022-10-30T07:41:27.638Z,45.56
2022-10-30T07:43:58.740Z,45.34
2022-10-30T07:46:31.164Z,45.78
2022-10-30T07:49:01.799Z,45.86
2022-10-30T07:51:31.826Z,45.15
2022-10-30T07:54:02.326Z,45.05
2022-10-30T07:56:32.889Z,45.35
2022-10-30T07:59:03.530Z,45.09
2022-10-30T08:01:35.222Z,44.69
2022-10-30T08:04:05.987Z,45.33
2022-10-30T08:09:24.200Z,45.17
2022-10-30T08:14:41.822Z,44.93
2022-10-30T08:17:13.566Z,44.75
2022-10-30T08:19:43.894Z,44.44
2022-10-30T08:22:14.973Z,43.90
2022-10-30T08:27:33.008Z,43.73
2022-10-30T08:30:04.582Z,43.82
2022-10-30T08:38:10.950Z,43.88
2022-10-30T08:40:40.976Z,43.34
2022-10-30T08:43:12.306Z,42.94
2022-10-30T08:45:42.865Z,43.12
2022-10-30T08:48:17.083Z,43.39
2022-10-30T08:53:35.198Z,42.92
2022-10-30T08:58:54.576Z,42.52
2022-10-30T09:07:06.380Z,42.61
2022-10-30T09:09:39.517Z,42.07
2022-10-30T09:14:57.680Z,41.34
2022-10-30T09:23:05.078Z,41.12
2022-10-30T09:25:35.592Z,41.21
2022-10-30T09:28:06.240Z,41.19
2022-10-30T09:30:36.664Z,40.55
2022-10-30T09:33:07.642Z,40.68
2022-10-30T09:35:39.648Z,40.44
2022-10-30T09:38:10.722Z,39.94
2022-10-30T09:44:24.421Z,40.09
2022-10-30T09:50:26.383Z,40.67
2022-10-30T09:53:17.099Z,40.58
2022-10-30T09:55:57.666Z,40.47
2022-10-30T09:58:41.981Z,40.13
2022-10-30T10:01:22.148Z,40.45
2022-10-30T10:04:08.066Z,40.48
2022-10-30T10:07:07.737Z,40.32
2022-10-30T10:10:31.475Z,40.42
2022-10-30T10:13:03.046Z,40.30
2022-10-30T10:15:44.897Z,40.82
2022-10-30T10:18:22.910Z,40.58
2022-10-30T10:21:05.567Z,40.54
2022-10-30T10:33:39.105Z,40.72
2022-10-30T10:36:46.851Z,40.68
2022-10-30T10:39:42.889Z,41.26
2022-10-30T10:42:29.386Z,41.35
2022-10-30T10:45:21.947Z,40.92
2022-10-30T10:48:24.247Z,41.23
2022-10-30T10:51:01.109Z,40.78
2022-10-30T10:53:42.661Z,41.28
2022-10-30T10:56:13.628Z,41.36
2022-10-30T10:58:54.403Z,40.96
2022-10-30T11:01:34.736Z,41.05
2022-10-30T11:04:17.419Z,41.01
2022-10-30T11:12:37.497Z,41.57
2022-10-30T11:18:16.960Z,41.17
2022-10-30T11:21:02.488Z,41.47
2022-10-30T11:23:51.454Z,41.24
2022-10-30T11:26:43.346Z,41.10
2022-10-30T11:29:18.484Z,41.02
2022-10-30T11:32:04.338Z,41.75
2022-10-30T11:34:46.745Z,41.58
2022-10-30T11:40:25.858Z,41.43
2022-10-30T11:45:53.326Z,41.17
2022-10-30T11:48:33.090Z,41.65
2022-10-30T11:51:05.216Z,41.69
2022-10-30T11:53:40.479Z,41.55
2022-10-30T11:56:19.313Z,41.29
2022-10-30T11:58:54.773Z,41.60
2022-10-30T12:01:28.949Z,41.92
2022-10-30T12:04:29.901Z,41.58
2022-10-30T12:07:20.525Z,41.76
2022-10-30T12:12:45.390Z,41.98
2022-10-30T12:15:30.263Z,41.58
2022-10-30T12:18:06.179Z,41.74
2022-10-30T12:20:42.681Z,41.99
2022-10-30T12:23:19.900Z,42.17
2022-10-30T12:28:42.609Z,42.11
2022-10-30T12:37:23.896Z,41.99
2022-10-30T12:40:04.697Z,42.58
2022-10-30T12:42:45.351Z,41.92
2022-10-30T12:45:21.999Z,42.29
2022-10-30T12:48:02.197Z,42.63
2022-10-30T12:50:43.217Z,42.28
2022-10-30T12:53:30.663Z,42.61
2022-10-30T12:56:10.065Z,42.65
2022-10-30T12:58:50.696Z,42.45
2022-10-30T13:01:30.633Z,42.19
2022-10-30T13:04:12.590Z,42.58
2022-10-30T13:10:04.903Z,42.06
2022-10-30T13:15:34.220Z,42.45
2022-10-30T13:21:26.111Z,42.33
2022-10-30T13:24:04.878Z,42.21
2022-10-30T13:26:47.578Z,42.38
2022-10-30T13:29:31.288Z,42.09
2022-10-30T13:32:25.560Z,42.63
2022-10-30T13:35:06.163Z,42.64
2022-10-30T13:37:48.538Z,42.58
2022-10-30T13:40:34.108Z,42.39
2022-10-30T13:43:25.325Z,42.95
2022-10-30T13:46:49.879Z,42.89
2022-10-30T13:49:44.351Z,42.76
2022-10-30T13:52:19.834Z,42.40
2022-10-30T14:01:16.148Z,42.57
2022-10-30T14:04:03.275Z,42.90
2022-10-30T14:06:49.405Z,42.42
2022-10-30T14:15:47.116Z,42.60
2022-10-30T14:18:46.895Z,42.87
2022-10-30T14:21:47.852Z,43.00
2022-10-30T14:27:20.601Z,43.45
2022-10-30T14:32:52.493Z,42.90
2022-10-30T14:35:42.637Z,43.53
2022-10-30T14:41:55.720Z,43.13
2022-10-30T14:45:05.570Z,43.12
2022-10-30T14:48:04.571Z,43.50
2022-10-30T14:50:59.227Z,43.10
2022-10-30T14:56:51.028Z,43.34
2022-10-30T14:59:33.703Z,43.24
2022-10-30T15:02:26.354Z,43.23
2022-10-30T15:05:33.843Z,43.69
2022-10-30T15:08:41.302Z,43.09
2022-10-30T15:14:48.569Z,43.43
2022-10-30T15:20:25.215Z,43.50
2022-10-30T15:22:59.349Z,43.99
2022-10-30T15:25:40.639Z,44.14
2022-10-30T15:31:06.238Z,44.17
2022-10-30T15:36:31.969Z,44.16
2022-10-30T15:39:12.599Z,44.03
2022-10-30T15:41:51.450Z,43.69
2022-10-30T15:47:20.171Z,43.90
2022-10-30T15:49:54.880Z,43.71
2022-10-30T15:52:27.931Z,44.18
2022-10-30T15:55:05.245Z,43.84
2022-10-30T16:00:38.989Z,44.38
2022-10-30T16:03:19.426Z,44.37
2022-10-30T16:08:47.293Z,44.42
2022-10-30T16:11:21.841Z,44.39
2022-10-30T16:13:56.194Z,44.74
2022-10-30T16:16:34.142Z,44.66
2022-10-30T16:19:08.162Z,44.47
2022-10-30T16:21:38.866Z,44.31
2022-10-30T16:24:11.701Z,44.36
2022-10-30T16:26:42.438Z,44.85
2022-10-30T16:29:27.006Z,44.34
2022-10-30T16:34:46.533Z,44.85
2022-10-30T16:37:22.413Z,44.54
2022-10-30T16:39:55.613Z,44.51
2022-10-30T16:42:29.303Z,44.66
2022-10-30T16:45:51.881Z,44.45
2022-10-30T16:54:20.874Z,44.60
2022-10-30T16:56:55.428Z,44.84
2022-10-30T17:02:32.002Z,44.50
2022-10-30T17:05:13.502Z,45.08
2022-10-30T17:07:57.946Z,45.08
2022-10-30T17:16:27.316Z,45.08
2022-10-30T17:19:03.017Z,45.37
2022-10-30T17:21:42.676Z,45.19
2022-10-30T17:24:26.125Z,45.03
2022-10-30T17:27:00.544Z,45.44
2022-10-30T17:38:25.079Z,45.42
2022-10-30T17:40:55.228Z,45.47
2022-10-30T17:43:29.507Z,44.99
2022-10-30T17:46:00.684Z,45.03
2022-10-30T17:51:22.377Z,45.36
2022-10-30T17:53:53.097Z,45.07
2022-10-30T17:56:29.860Z,45.18
2022-10-30T17:58:59.820Z,45.45
2022-10-30T18:09:59.526Z,45.59
2022-10-30T18:15:36.275Z,45.42
2022-10-30T18:18:08.191Z,45.67
2022-10-30T18:20:39.301Z,45.55
2022-10-30T18:26:18.104Z,45.41
2022-10-30T18:28:48.679Z,45.08
2022-10-30T18:31:21.948Z,45.73
2022-10-30T18:36:39.872Z,45.16
2022-10-30T18:39:14.222Z,45.50
2022-10-30T18:41:46.808Z,45.20
2022-10-30T18:44:18.352Z,45.09
2022-10-30T18:47:02.719Z,45.01
2022-10-30T18:49:33.942Z,45.28
2022-10-30T18:54:55.627Z,45.06
2022-10-30T18:57:27.044Z,45.14
2022-10-30T18:59:57.127Z,45.68
2022-10-30T19:02:32.653Z,45.42
2022-10-30T19:05:04.270Z,45.54
2022-10-30T19:07:35.352Z,45.81
2022-10-30T19:13:22.689Z,45.81
2022-10-30T19:16:00.308Z,45.16
2022-10-30T19:18:33.169Z,45.47
2022-10-30T19:21:06.513Z,45.57
2022-10-30T19:26:30.668Z,45.66
2022-10-30T19:29:01.092Z,45.31
2022-10-30T19:31:31.649Z,45.28
2022-10-30T19:34:01.716Z,45.69
2022-10-30T19:36:36.802Z,45.90
2022-10-30T19:39:13.554Z,45.24
2022-10-30T19:41:49.755Z,45.17
2022-10-30T19:44:30.015Z,45.36
2022-10-30T19:52:37.486Z,45.98
2022-10-30T19:55:10.077Z,45.50
2022-10-30T19:57:43.285Z,45.44
2022-10-30T20:00:20.496Z,45.95
2022-10-30T20:02:53.163Z,45.50
2022-10-30T20:05:26.441Z,45.55
2022-10-30T20:11:09.160Z,45.72
2022-10-30T20:13:42.011Z,45.62
2022-10-30T20:16:14.605Z,45.45
2022-10-30T20:18:44.455Z,45.63
2022-10-30T20:21:19.103Z,45.75
2022-10-30T20:23:50.803Z,45.65
2022-10-30T20:26:28.846Z,45.22
2022-10-30T20:29:04.939Z,45.69
2022-10-30T20:31:35.505Z,45.42
2022-10-30T20:34:06.978Z,45.75
2022-10-30T20:36:37.035Z,45.80
2022-10-30T20:44:53.879Z,45.25
2022-10-30T20:50:14.001Z,45.30
2022-10-30T20:52:52.610Z,45.55
2022-10-30T20:58:20.844Z,46.15
2022-10-30T21:03:43.924Z,45.76
2022-10-30T21:06:18.506Z,45.90
2022-10-30T21:08:50.480Z,46.13
2022-10-30T21:11:22.364Z,45.98
2022-10-30T21:13:56.781Z,46.03
2022-10-30T21:16:29.040Z,45.80
2022-10-30T21:18:59.704Z,45.67
2022-10-30T21:21:31.194Z,45.84
2022-10-30T21:24:01.039Z,45.72
2022-10-30T21:26:31.999Z,45.71
2022-10-30T21:29:02.800Z,45.97
2022-10-30T21:31:34.446Z,45.49
2022-10-30T21:34:04.314Z,45.68
2022-10-30T21:36:34.142Z,45.84
2022-10-30T21:39:06.949Z,45.81
2022-10-30T21:41:39.899Z,46.13
2022-10-30T21:44:10.937Z,45.54
2022-10-30T21:46:43.772Z,46.00
2022-10-30T21:49:16.864Z,45.71
2022-10-30T21:51:51.045Z,45.83
2022-10-30T21:59:46.073Z,46.10
2022-10-30T22:02:32.225Z,45.82
2022-10-30T22:05:02.087Z,45.70
2022-10-30T22:07:32.010Z,45.57
2022-10-30T22:10:01.975Z,45.74
2022-10-30T22:15:21.435Z,46.20
2022-10-30T22:20:49.655Z,45.71
2022-10-30T22:23:29.282Z,45.60
2022-10-30T22:26:00.384Z,45.58
2022-10-30T22:28:39.980Z,45.94
2022-10-30T22:31:13.495Z,45.76
2022-10-30T22:33:45.678Z,45.54
2022-10-30T22:36:22.458Z,45.65
2022-10-30T22:38:59.741Z,45.75
2022-10-30T22:41:44.553Z,46.12
2022-10-30T22:44:17.779Z,46.10
2022-10-30T22:46:50.369Z,45.52
2022-10-30T22:49:22.888Z,46.14
2022-10-30T22:51:52.773Z,45.97
2022-10-30T22:57:07.647Z,46.38
2022-10-30T22:59:37.962Z,45.94
2022-10-30T23:02:22.479Z,46.51
2022-10-30T23:04:53.796Z,45.99
2022-10-30T23:07:23.783Z,46.22
2022-10-30T23:09:53.736Z,46.41
2022-10-30T23:12:32.432Z,46.37
2022-10-30T23:15:02.327Z,46.05
2022-10-30T23:17:32.122Z,46.23
2022-10-30T23:20:05.187Z,46.18
2022-10-30T23:22:35.711Z,46.42
2022-10-30T23:25:05.937Z,46.33
2022-10-30T23:27:38.528Z,46.44
2022-10-30T23:30:10.664Z,46.39
2022-10-30T23:32:41.241Z,46.17
2022-10-30T23:35:12.781Z,46.44
2022-10-30T23:37:42.738Z,46.41
2022-10-30T23:40:16.425Z,46.88
2022-10-30T23:42:46.851Z,46.84
2022-10-30T23:45:16.892Z,46.44
2022-10-30T23:47:46.663Z,46.78
2022-10-30T23:50:20.768Z,46.28
2022-10-30T23:52:50.648Z,46.85
2022-10-30T23:55:20.498Z,47.10
2022-10-30T23:57:51.522Z,46.46
